createdAt,value
2023-06-16T00:00:15.376Z,572.00
2023-06-16T00:01:15.223Z,570.00
2023-06-16T00:02:15.205Z,570.00
2023-06-16T00:03:15.246Z,569.00
2023-06-16T00:04:15.488Z,569.00
2023-06-16T00:05:15.409Z,565.00
2023-06-16T00:06:15.615Z,566.00
2023-06-16T00:07:15.446Z,567.00
2023-06-16T00:08:15.486Z,568.00
2023-06-16T00:09:15.555Z,569.00
2023-06-16T00:10:15.755Z,569.00
2023-06-16T00:11:15.638Z,567.00
2023-06-16T00:12:15.682Z,563.00
2023-06-16T00:13:15.737Z,560.00
2023-06-16T00:14:15.742Z,562.00
2023-06-16T00:15:15.798Z,562.00
2023-06-16T00:16:15.844Z,559.00
2023-06-16T00:17:15.868Z,559.00
2023-06-16T00:18:15.931Z,559.00
2023-06-16T00:19:15.975Z,558.00
2023-06-16T00:20:16.397Z,556.00
2023-06-16T00:21:15.941Z,556.00
2023-06-16T00:22:15.925Z,559.00
2023-06-16T00:23:15.921Z,559.00
2023-06-16T00:24:15.925Z,559.00
2023-06-16T00:25:15.897Z,560.00
2023-06-16T00:26:15.870Z,561.00
2023-06-16T00:27:15.847Z,561.00
2023-06-16T00:28:15.852Z,560.00
2023-06-16T00:29:15.833Z,559.00
2023-06-16T00:30:15.927Z,561.00
2023-06-16T00:31:15.799Z,558.00
2023-06-16T00:32:15.846Z,559.00
2023-06-16T00:33:15.882Z,563.00
2023-06-16T00:34:15.942Z,565.00
2023-06-16T00:35:16.042Z,565.00
2023-06-16T00:36:16.035Z,565.00
2023-06-16T00:37:16.077Z,562.00
2023-06-16T00:38:16.121Z,563.00
2023-06-16T00:39:16.171Z,561.00
2023-06-16T00:40:16.373Z,562.00
2023-06-16T00:41:16.271Z,562.00
2023-06-16T00:42:16.312Z,563.00
2023-06-16T00:43:16.355Z,561.00
2023-06-16T00:44:16.395Z,559.00
2023-06-16T00:45:16.444Z,558.00
2023-06-16T00:46:16.522Z,559.00
2023-06-16T00:47:16.556Z,561.00
2023-06-16T00:48:16.498Z,561.00
2023-06-16T00:49:16.488Z,559.00
2023-06-16T00:50:16.519Z,560.00
2023-06-16T00:51:16.471Z,561.00
2023-06-16T00:52:16.456Z,561.00
2023-06-16T00:53:16.417Z,560.00
2023-06-16T00:54:16.412Z,559.00
2023-06-16T00:55:16.411Z,560.00
2023-06-16T00:56:16.383Z,558.00
2023-06-16T00:57:16.375Z,560.00
2023-06-16T00:58:16.415Z,560.00
2023-06-16T00:59:16.458Z,558.00
2023-06-16T01:00:16.800Z,557.00
2023-06-16T01:01:16.563Z,556.00
2023-06-16T01:02:16.733Z,558.00
2023-06-16T01:03:16.717Z,556.00
2023-06-16T01:04:16.727Z,558.00
2023-06-16T01:05:16.767Z,558.00
2023-06-16T01:06:16.813Z,560.00
2023-06-16T01:07:16.803Z,562.00
2023-06-16T01:08:16.794Z,560.00
2023-06-16T01:09:16.760Z,560.00
2023-06-16T01:10:16.883Z,559.00
2023-06-16T01:11:16.738Z,559.00
2023-06-16T01:12:16.710Z,558.00
2023-06-16T01:13:16.682Z,559.00
2023-06-16T01:14:16.672Z,558.00
2023-06-16T01:15:16.663Z,556.00
2023-06-16T01:16:16.728Z,557.00
2023-06-16T01:17:17.058Z,558.00
2023-06-16T01:18:16.762Z,558.00
2023-06-16T01:19:16.822Z,559.00
2023-06-16T01:20:17.101Z,558.00
2023-06-16T01:21:16.917Z,557.00
2023-06-16T01:22:16.964Z,557.00
2023-06-16T01:23:17.025Z,556.00
2023-06-16T01:24:17.080Z,556.00
2023-06-16T01:25:17.120Z,557.00
2023-06-16T01:26:17.164Z,556.00
2023-06-16T01:27:17.217Z,556.00
2023-06-16T01:28:17.260Z,555.00
2023-06-16T01:29:17.337Z,555.00
2023-06-16T01:30:17.645Z,555.00
2023-06-16T01:31:17.431Z,556.00
2023-06-16T01:33:36.508Z,548.00
2023-06-16T01:34:36.486Z,545.00
2023-06-16T01:35:36.525Z,547.00
2023-06-16T01:36:36.543Z,550.00
2023-06-16T01:37:36.602Z,552.00
2023-06-16T01:38:36.649Z,552.00
2023-06-16T01:39:36.631Z,553.00
2023-06-16T01:40:36.629Z,551.00
2023-06-16T01:41:36.614Z,553.00
2023-06-16T01:42:36.606Z,553.00
2023-06-16T01:43:36.608Z,552.00
2023-06-16T01:44:36.593Z,551.00
2023-06-16T01:45:36.594Z,551.00
2023-06-16T01:46:36.646Z,552.00
2023-06-16T01:47:36.607Z,551.00
2023-06-16T01:48:36.541Z,549.00
2023-06-16T01:49:36.513Z,547.00
2023-06-16T01:50:36.483Z,550.00
2023-06-16T01:51:36.471Z,548.00
2023-06-16T01:52:36.459Z,548.00
2023-06-16T01:53:36.446Z,548.00
2023-06-16T01:54:36.442Z,551.00
2023-06-16T01:55:36.417Z,552.00
2023-06-16T01:56:36.423Z,552.00
2023-06-16T01:57:36.473Z,550.00
2023-06-16T01:58:36.546Z,546.00
2023-06-16T01:59:36.590Z,544.00
2023-06-16T02:00:36.675Z,543.00
2023-06-16T02:01:36.694Z,542.00
2023-06-16T02:02:36.724Z,542.00
2023-06-16T02:03:36.770Z,544.00
2023-06-16T02:04:36.641Z,546.00
2023-06-16T02:05:36.625Z,546.00
2023-06-16T02:06:36.597Z,547.00
2023-06-16T02:07:36.574Z,549.00
2023-06-16T02:08:36.579Z,547.00
2023-06-16T02:09:36.552Z,548.00
2023-06-16T02:10:36.521Z,547.00
2023-06-16T02:11:36.574Z,547.00
2023-06-16T02:12:36.604Z,548.00
2023-06-16T02:13:36.671Z,548.00
2023-06-16T02:14:36.730Z,547.00
2023-06-16T02:15:36.781Z,549.00
2023-06-16T02:16:36.919Z,550.00
2023-06-16T02:17:36.902Z,550.00
2023-06-16T02:18:36.909Z,550.00
2023-06-16T02:19:36.955Z,551.00
2023-06-16T02:20:37.018Z,549.00
2023-06-16T02:21:37.065Z,549.00
2023-06-16T02:22:37.135Z,548.00
2023-06-16T02:23:37.176Z,549.00
2023-06-16T02:24:37.353Z,548.00
2023-06-16T02:25:37.299Z,551.00
2023-06-16T02:26:37.335Z,550.00
2023-06-16T02:27:37.387Z,550.00
2023-06-16T02:28:37.447Z,547.00
2023-06-16T02:29:37.494Z,546.00
2023-06-16T02:30:37.597Z,546.00
2023-06-16T02:31:37.638Z,543.00
2023-06-16T02:32:39.473Z,542.00
2023-06-16T02:33:38.720Z,542.00
2023-06-16T02:34:37.750Z,542.00
2023-06-16T02:35:37.641Z,538.00
2023-06-16T02:36:37.615Z,537.00
2023-06-16T02:37:37.610Z,536.00
2023-06-16T02:38:37.576Z,539.00
2023-06-16T02:39:37.556Z,540.00
2023-06-16T02:40:37.559Z,541.00
2023-06-16T02:41:37.562Z,542.00
2023-06-16T02:42:37.620Z,541.00
2023-06-16T02:43:37.685Z,540.00
2023-06-16T02:44:37.731Z,540.00
2023-06-16T02:45:37.814Z,540.00
2023-06-16T02:46:37.880Z,539.00
2023-06-16T02:47:37.898Z,539.00
2023-06-16T02:48:37.951Z,538.00
2023-06-16T02:49:38.002Z,535.00
2023-06-16T02:50:38.046Z,535.00
2023-06-16T02:51:38.078Z,535.00
2023-06-16T02:52:38.126Z,534.00
2023-06-16T02:53:38.169Z,530.00
2023-06-16T02:54:38.223Z,529.00
2023-06-16T02:55:38.273Z,528.00
2023-06-16T02:56:38.312Z,528.00
2023-06-16T02:57:38.369Z,527.00
2023-06-16T02:58:38.401Z,526.00
2023-06-16T02:59:38.426Z,526.00
2023-06-16T03:00:38.498Z,526.00
2023-06-16T03:01:38.519Z,523.00
2023-06-16T03:02:38.564Z,522.00
2023-06-16T03:03:38.533Z,519.00
2023-06-16T03:04:38.497Z,517.00
2023-06-16T03:05:38.502Z,518.00
2023-06-16T03:06:38.514Z,516.00
2023-06-16T03:07:38.486Z,518.00
2023-06-16T03:08:38.487Z,520.00
2023-06-16T03:09:38.502Z,520.00
2023-06-16T03:10:38.512Z,517.00
2023-06-16T03:11:38.537Z,515.00
2023-06-16T03:12:38.524Z,515.00
2023-06-16T03:13:38.521Z,515.00
2023-06-16T03:14:38.551Z,515.00
2023-06-16T03:15:38.542Z,515.00
2023-06-16T03:16:38.585Z,516.00
2023-06-16T03:17:38.612Z,516.00
2023-06-16T03:18:38.583Z,515.00
2023-06-16T03:19:38.600Z,515.00
2023-06-16T03:20:38.639Z,514.00
2023-06-16T03:21:38.636Z,514.00
2023-06-16T03:22:38.657Z,515.00
2023-06-16T03:23:38.659Z,515.00
2023-06-16T03:24:38.688Z,514.00
2023-06-16T03:25:38.705Z,513.00
2023-06-16T03:26:38.752Z,514.00
2023-06-16T03:27:38.759Z,516.00
2023-06-16T03:28:38.768Z,514.00
2023-06-16T03:29:38.787Z,512.00
2023-06-16T03:30:38.826Z,510.00
2023-06-16T03:31:38.835Z,510.00
2023-06-16T03:32:39.008Z,509.00
2023-06-16T03:33:38.899Z,510.00
2023-06-16T03:34:38.935Z,511.00
2023-06-16T03:35:39.009Z,512.00
2023-06-16T03:36:39.005Z,511.00
2023-06-16T03:37:39.024Z,509.00
2023-06-16T03:38:39.072Z,509.00
2023-06-16T03:39:39.108Z,508.00
2023-06-16T03:40:39.152Z,506.00
2023-06-16T03:41:39.158Z,506.00
2023-06-16T03:42:39.202Z,507.00
2023-06-16T03:43:39.233Z,509.00
2023-06-16T03:44:39.285Z,510.00
2023-06-16T03:45:39.385Z,509.00
2023-06-16T03:46:39.342Z,509.00
2023-06-16T03:47:39.420Z,509.00
2023-06-16T03:48:39.416Z,508.00
2023-06-16T03:49:39.443Z,506.00
2023-06-16T03:50:39.533Z,505.00
2023-06-16T03:51:39.532Z,506.00
2023-06-16T03:52:39.573Z,507.00
2023-06-16T03:53:39.616Z,509.00
2023-06-16T03:54:39.645Z,508.00
2023-06-16T03:55:39.684Z,507.00
2023-06-16T03:56:39.714Z,510.00
2023-06-16T03:57:39.679Z,509.00
2023-06-16T03:58:39.667Z,505.00
2023-06-16T03:59:39.661Z,504.00
2023-06-16T04:00:39.674Z,506.00
2023-06-16T04:01:39.692Z,507.00
2023-06-16T04:02:39.702Z,508.00
2023-06-16T04:03:39.672Z,509.00
2023-06-16T04:04:39.648Z,508.00
2023-06-16T04:05:39.619Z,509.00
2023-06-16T04:06:39.623Z,510.00
2023-06-16T04:07:39.657Z,508.00
2023-06-16T04:08:39.702Z,509.00
2023-06-16T04:09:39.754Z,509.00
2023-06-16T04:10:39.840Z,509.00
2023-06-16T04:11:39.859Z,510.00
2023-06-16T04:12:39.937Z,510.00
2023-06-16T04:13:39.976Z,510.00
2023-06-16T04:14:40.022Z,510.00
2023-06-16T04:15:40.094Z,510.00
2023-06-16T04:16:40.126Z,509.00
2023-06-16T04:17:40.257Z,507.00
2023-06-16T04:18:40.263Z,505.00
2023-06-16T04:19:40.286Z,507.00
2023-06-16T04:20:40.358Z,507.00
2023-06-16T04:21:40.397Z,504.00
2023-06-16T04:22:40.477Z,504.00
2023-06-16T04:23:40.517Z,504.00
2023-06-16T04:24:40.587Z,505.00
2023-06-16T04:25:40.635Z,505.00
2023-06-16T04:26:40.674Z,508.00
2023-06-16T04:27:40.766Z,510.00
2023-06-16T04:28:40.786Z,508.00
2023-06-16T04:29:40.850Z,507.00
2023-06-16T04:30:40.934Z,509.00
2023-06-16T04:31:40.965Z,510.00
2023-06-16T04:32:41.086Z,511.00
2023-06-16T04:33:41.081Z,510.00
2023-06-16T04:34:41.137Z,510.00
2023-06-16T04:35:41.208Z,510.00
2023-06-16T04:36:41.273Z,508.00
2023-06-16T04:37:41.311Z,507.00
2023-06-16T04:38:41.320Z,507.00
2023-06-16T04:39:41.298Z,508.00
2023-06-16T04:40:41.310Z,504.00
2023-06-16T04:41:41.297Z,503.00
2023-06-16T04:42:41.287Z,505.00
2023-06-16T04:43:41.322Z,502.00
2023-06-16T04:44:41.387Z,503.00
2023-06-16T04:45:41.286Z,505.00
2023-06-16T04:46:41.346Z,504.00
2023-06-16T04:47:41.409Z,505.00
2023-06-16T04:48:41.465Z,508.00
2023-06-16T04:49:41.531Z,507.00
2023-06-16T04:50:41.583Z,509.00
2023-06-16T04:51:41.625Z,507.00
2023-06-16T04:52:41.700Z,506.00
2023-06-16T04:53:41.746Z,507.00
2023-06-16T04:54:41.821Z,505.00
2023-06-16T04:55:41.881Z,504.00
2023-06-16T04:56:41.933Z,504.00
2023-06-16T04:57:41.999Z,502.00
2023-06-16T04:58:42.053Z,503.00
2023-06-16T04:59:42.090Z,505.00
2023-06-16T05:00:42.111Z,504.00
2023-06-16T05:01:42.172Z,504.00
2023-06-16T05:02:42.241Z,502.00
2023-06-16T05:03:42.352Z,502.00
2023-06-16T05:04:42.314Z,502.00
2023-06-16T05:05:42.393Z,502.00
2023-06-16T05:06:42.439Z,503.00
2023-06-16T05:07:42.500Z,502.00
2023-06-16T05:08:42.582Z,502.00
2023-06-16T05:09:42.702Z,504.00
2023-06-16T05:10:42.693Z,503.00
2023-06-16T05:11:42.732Z,502.00
2023-06-16T05:12:42.783Z,501.00
2023-06-16T05:13:42.817Z,501.00
2023-06-16T05:14:42.857Z,500.00
2023-06-16T05:15:42.909Z,497.00
2023-06-16T05:16:42.939Z,499.00
2023-06-16T05:17:43.053Z,501.00
2023-06-16T05:18:43.078Z,501.00
2023-06-16T05:19:43.008Z,501.00
2023-06-16T05:20:43.066Z,500.00
2023-06-16T05:21:43.126Z,500.00
2023-06-16T05:22:43.127Z,501.00
2023-06-16T05:23:43.168Z,501.00
2023-06-16T05:24:43.241Z,501.00
2023-06-16T05:25:43.235Z,502.00
2023-06-16T05:26:43.278Z,496.00
2023-06-16T05:27:43.318Z,496.00
2023-06-16T05:28:43.385Z,498.00
2023-06-16T05:29:43.392Z,499.00
2023-06-16T05:30:43.494Z,501.00
2023-06-16T05:31:43.484Z,503.00
2023-06-16T05:32:43.557Z,502.00
2023-06-16T05:33:43.533Z,503.00
2023-06-16T05:34:43.565Z,504.00
2023-06-16T05:35:43.624Z,504.00
2023-06-16T05:36:43.589Z,503.00
2023-06-16T05:37:43.596Z,502.00
2023-06-16T05:38:43.630Z,500.00
2023-06-16T05:39:43.632Z,501.00
2023-06-16T05:40:43.613Z,502.00
2023-06-16T05:41:43.603Z,502.00
2023-06-16T05:42:43.601Z,505.00
2023-06-16T05:43:43.578Z,506.00
2023-06-16T05:44:43.583Z,506.00
2023-06-16T05:45:43.571Z,507.00
2023-06-16T05:46:43.567Z,510.00
2023-06-16T05:47:43.624Z,509.00
2023-06-16T05:48:45.439Z,511.00
2023-06-16T05:49:43.517Z,512.00
2023-06-16T05:50:43.539Z,514.00
2023-06-16T05:51:43.534Z,516.00
2023-06-16T05:52:43.496Z,515.00
2023-06-16T05:53:43.482Z,512.00
2023-06-16T05:54:43.467Z,513.00
2023-06-16T05:55:43.462Z,512.00
2023-06-16T05:56:43.438Z,510.00
2023-06-16T05:57:43.449Z,508.00
2023-06-16T05:58:43.408Z,507.00
2023-06-16T05:59:43.393Z,509.00
2023-06-16T06:00:43.398Z,509.00
2023-06-16T06:01:43.389Z,506.00
2023-06-16T06:02:43.445Z,509.00
2023-06-16T06:03:43.550Z,506.00
2023-06-16T06:04:43.375Z,505.00
2023-06-16T06:05:43.338Z,503.00
2023-06-16T06:06:43.313Z,502.00
2023-06-16T06:07:43.297Z,500.00
2023-06-16T06:08:43.321Z,499.00
2023-06-16T06:09:43.283Z,500.00
2023-06-16T06:10:43.281Z,502.00
2023-06-16T06:11:43.289Z,503.00
2023-06-16T06:12:43.278Z,506.00
2023-06-16T06:13:43.238Z,507.00
2023-06-16T06:14:43.247Z,505.00
2023-06-16T06:15:43.259Z,503.00
2023-06-16T06:16:43.221Z,504.00
2023-06-16T06:17:43.272Z,504.00
2023-06-16T06:18:43.195Z,503.00
2023-06-16T06:19:43.207Z,502.00
2023-06-16T06:20:43.183Z,504.00
2023-06-16T06:21:43.186Z,506.00
2023-06-16T06:22:43.158Z,507.00
2023-06-16T06:23:43.161Z,508.00
2023-06-16T06:24:43.167Z,507.00
2023-06-16T06:25:43.189Z,507.00
2023-06-16T06:26:43.143Z,504.00
2023-06-16T06:27:43.236Z,504.00
2023-06-16T06:28:43.129Z,504.00
2023-06-16T06:29:43.111Z,503.00
2023-06-16T06:30:43.143Z,505.00
2023-06-16T06:31:43.086Z,504.00
2023-06-16T06:32:43.104Z,506.00
2023-06-16T06:33:43.094Z,506.00
2023-06-16T06:34:43.067Z,508.00
2023-06-16T06:35:43.073Z,508.00
2023-06-16T06:36:43.050Z,506.00
2023-06-16T06:37:43.051Z,504.00
2023-06-16T06:38:43.021Z,504.00
2023-06-16T06:39:43.029Z,504.00
2023-06-16T06:40:43.012Z,502.00
2023-06-16T06:41:43.010Z,503.00
2023-06-16T06:42:42.987Z,503.00
2023-06-16T06:43:42.990Z,505.00
2023-06-16T06:44:42.961Z,505.00
2023-06-16T06:45:42.965Z,504.00
2023-06-16T06:46:42.972Z,504.00
2023-06-16T06:47:42.992Z,504.00
2023-06-16T06:48:42.968Z,503.00
2023-06-16T06:49:42.927Z,505.00
2023-06-16T06:50:42.932Z,504.00
2023-06-16T06:51:42.904Z,503.00
2023-06-16T06:52:42.911Z,504.00
2023-06-16T06:53:42.893Z,503.00
2023-06-16T06:54:42.881Z,501.00
2023-06-16T06:55:42.892Z,500.00
2023-06-16T06:56:42.885Z,502.00
2023-06-16T06:57:42.873Z,503.00
2023-06-16T06:58:42.833Z,502.00
2023-06-16T06:59:42.821Z,502.00
2023-06-16T07:00:42.816Z,498.00
2023-06-16T07:01:42.836Z,496.00
2023-06-16T07:02:43.033Z,495.00
2023-06-16T07:03:42.854Z,495.00
2023-06-16T07:04:42.826Z,497.00
2023-06-16T07:05:42.819Z,495.00
2023-06-16T07:06:42.756Z,495.00
2023-06-16T07:07:42.760Z,497.00
2023-06-16T07:08:42.743Z,498.00
2023-06-16T07:09:42.744Z,500.00
2023-06-16T07:10:42.760Z,501.00
2023-06-16T07:11:42.764Z,501.00
2023-06-16T07:12:42.768Z,502.00
2023-06-16T07:13:42.777Z,503.00
2023-06-16T07:14:42.690Z,503.00
2023-06-16T07:15:42.718Z,502.00
2023-06-16T07:16:42.649Z,504.00
2023-06-16T07:17:42.917Z,503.00
2023-06-16T07:18:42.639Z,504.00
2023-06-16T07:19:42.658Z,505.00
2023-06-16T07:20:42.681Z,504.00
2023-06-16T07:21:42.614Z,504.00
2023-06-16T07:22:42.592Z,505.00
2023-06-16T07:23:42.588Z,507.00
2023-06-16T07:24:42.724Z,505.00
2023-06-16T07:25:42.743Z,504.00
2023-06-16T07:26:42.786Z,504.00
2023-06-16T07:27:42.859Z,507.00
2023-06-16T07:28:42.905Z,506.00
2023-06-16T07:29:42.928Z,508.00
2023-06-16T07:30:43.016Z,507.00
2023-06-16T07:31:43.043Z,506.00
2023-06-16T07:32:43.129Z,505.00
2023-06-16T07:33:43.160Z,504.00
2023-06-16T07:34:43.242Z,504.00
2023-06-16T07:35:43.323Z,505.00
2023-06-16T07:36:43.359Z,503.00
2023-06-16T07:37:43.418Z,502.00
2023-06-16T07:38:43.477Z,500.00
2023-06-16T07:39:43.522Z,499.00
2023-06-16T07:40:43.533Z,497.00
2023-06-16T07:41:43.577Z,496.00
2023-06-16T07:42:43.533Z,496.00
2023-06-16T07:43:43.523Z,498.00
2023-06-16T07:44:43.503Z,494.00
2023-06-16T07:45:43.538Z,492.00
2023-06-16T07:46:43.512Z,494.00
2023-06-16T07:47:43.529Z,496.00
2023-06-16T07:48:43.539Z,494.00
2023-06-16T07:49:43.580Z,494.00
2023-06-16T07:50:43.622Z,494.00
2023-06-16T07:51:43.569Z,491.00
2023-06-16T07:52:43.644Z,492.00
2023-06-16T07:53:43.542Z,490.00
2023-06-16T07:54:43.510Z,490.00
2023-06-16T07:55:43.563Z,490.00
2023-06-16T07:56:43.491Z,489.00
2023-06-16T07:57:43.464Z,490.00
2023-06-16T07:58:43.510Z,491.00
2023-06-16T07:59:43.551Z,492.00
2023-06-16T08:00:43.632Z,493.00
2023-06-16T08:01:43.736Z,494.00
2023-06-16T08:02:43.860Z,492.00
2023-06-16T08:03:43.858Z,490.00
2023-06-16T08:04:43.777Z,489.00
2023-06-16T08:05:43.837Z,489.00
2023-06-16T08:06:43.854Z,489.00
2023-06-16T08:07:43.902Z,487.00
2023-06-16T08:08:43.976Z,487.00
2023-06-16T08:09:43.984Z,487.00
2023-06-16T08:10:44.033Z,486.00
2023-06-16T08:11:44.066Z,485.00
2023-06-16T08:12:44.092Z,485.00
2023-06-16T08:13:44.246Z,485.00
2023-06-16T08:14:44.177Z,482.00
2023-06-16T08:15:44.243Z,479.00
2023-06-16T08:16:44.255Z,480.00
2023-06-16T08:17:44.321Z,479.00
2023-06-16T08:18:44.322Z,479.00
2023-06-16T08:19:44.355Z,478.00
2023-06-16T08:20:44.389Z,477.00
2023-06-16T08:21:44.433Z,477.00
2023-06-16T08:22:44.445Z,480.00
2023-06-16T08:23:44.491Z,482.00
2023-06-16T08:24:44.525Z,483.00
2023-06-16T08:25:44.557Z,484.00
2023-06-16T08:26:44.590Z,485.00
2023-06-16T08:27:44.599Z,484.00
2023-06-16T08:28:44.621Z,484.00
2023-06-16T08:29:44.643Z,485.00
2023-06-16T08:30:44.682Z,486.00
2023-06-16T08:31:44.684Z,485.00
2023-06-16T08:32:44.783Z,485.00
2023-06-16T08:33:44.684Z,484.00
2023-06-16T08:34:44.688Z,484.00
2023-06-16T08:35:44.715Z,486.00
2023-06-16T08:36:44.694Z,487.00
2023-06-16T08:37:44.682Z,486.00
2023-06-16T08:38:44.684Z,483.00
2023-06-16T08:39:44.681Z,482.00
2023-06-16T08:40:44.681Z,483.00
2023-06-16T08:41:44.650Z,482.00
2023-06-16T08:42:44.622Z,482.00
2023-06-16T08:43:44.609Z,481.00
2023-06-16T08:44:44.616Z,483.00
2023-06-16T08:45:44.608Z,484.00
2023-06-16T08:46:44.626Z,485.00
2023-06-16T08:47:44.621Z,485.00
2023-06-16T08:48:44.546Z,486.00
2023-06-16T08:49:44.545Z,483.00
2023-06-16T08:50:44.512Z,482.00
2023-06-16T08:51:44.484Z,479.00
2023-06-16T08:52:45.534Z,477.00
2023-06-16T08:53:44.465Z,478.00
2023-06-16T08:54:44.433Z,477.00
2023-06-16T08:55:44.429Z,476.00
2023-06-16T08:56:44.422Z,477.00
2023-06-16T08:57:44.407Z,478.00
2023-06-16T08:58:44.411Z,480.00
2023-06-16T08:59:44.402Z,480.00
2023-06-16T09:00:44.390Z,479.00
2023-06-16T09:01:44.355Z,479.00
2023-06-16T09:02:44.430Z,479.00
2023-06-16T09:03:44.439Z,477.00
2023-06-16T09:04:44.325Z,476.00
2023-06-16T09:05:44.322Z,476.00
2023-06-16T09:06:44.277Z,476.00
2023-06-16T09:07:44.282Z,476.00
2023-06-16T09:08:44.257Z,475.00
2023-06-16T09:09:44.263Z,471.00
2023-06-16T09:10:44.239Z,474.00
2023-06-16T09:11:44.214Z,474.00
2023-06-16T09:12:44.229Z,475.00
2023-06-16T09:13:44.189Z,475.00
2023-06-16T09:14:44.215Z,476.00
2023-06-16T09:15:44.166Z,478.00
2023-06-16T09:16:44.245Z,480.00
2023-06-16T09:17:44.144Z,482.00
2023-06-16T09:18:44.158Z,482.00
2023-06-16T09:19:44.114Z,483.00
2023-06-16T09:20:44.100Z,484.00
2023-06-16T09:21:45.651Z,483.00
2023-06-16T09:22:45.064Z,483.00
2023-06-16T09:23:44.047Z,483.00
2023-06-16T09:24:44.053Z,482.00
2023-06-16T09:25:44.038Z,485.00
2023-06-16T09:26:44.078Z,485.00
2023-06-16T09:27:43.992Z,486.00
2023-06-16T09:28:43.986Z,486.00
2023-06-16T09:29:43.973Z,486.00
2023-06-16T09:30:44.503Z,483.00
2023-06-16T09:31:43.963Z,483.00
2023-06-16T09:32:43.974Z,483.00
2023-06-16T09:33:43.943Z,483.00
2023-06-16T09:34:43.933Z,484.00
2023-06-16T09:35:43.966Z,488.00
2023-06-16T09:36:43.881Z,489.00
2023-06-16T09:37:43.873Z,488.00
2023-06-16T09:38:43.876Z,486.00
2023-06-16T09:39:43.913Z,487.00
2023-06-16T09:40:43.863Z,487.00
2023-06-16T09:41:43.824Z,485.00
2023-06-16T09:42:43.835Z,487.00
2023-06-16T09:43:43.840Z,488.00
2023-06-16T09:44:43.790Z,486.00
2023-06-16T09:45:43.850Z,485.00
2023-06-16T09:46:43.760Z,487.00
2023-06-16T09:47:43.744Z,490.00
2023-06-16T09:48:43.735Z,490.00
2023-06-16T09:49:43.762Z,490.00
2023-06-16T09:50:43.805Z,492.00
2023-06-16T09:51:43.838Z,493.00
2023-06-16T09:52:43.796Z,492.00
2023-06-16T09:53:43.773Z,490.00
2023-06-16T09:54:43.763Z,492.00
2023-06-16T09:55:43.741Z,491.00
2023-06-16T09:56:43.723Z,491.00
2023-06-16T09:57:43.697Z,490.00
2023-06-16T09:58:43.672Z,491.00
2023-06-16T09:59:44.757Z,492.00
2023-06-16T10:00:43.657Z,491.00
2023-06-16T10:01:43.669Z,490.00
2023-06-16T10:02:43.738Z,488.00
2023-06-16T10:03:43.828Z,490.00
2023-06-16T10:04:43.814Z,491.00
2023-06-16T10:05:43.890Z,491.00
2023-06-16T10:06:43.922Z,486.00
2023-06-16T10:07:43.898Z,485.00
2023-06-16T10:08:43.878Z,484.00
2023-06-16T10:09:49.375Z,486.00
2023-06-16T10:10:44.839Z,487.00
2023-06-16T10:11:43.821Z,486.00
2023-06-16T10:12:43.848Z,488.00
2023-06-16T10:13:43.746Z,489.00
2023-06-16T10:14:43.723Z,487.00
2023-06-16T10:15:43.703Z,483.00
2023-06-16T10:16:43.705Z,485.00
2023-06-16T10:17:43.751Z,485.00
2023-06-16T10:18:43.818Z,484.00
2023-06-16T10:19:43.637Z,484.00
2023-06-16T10:20:43.655Z,486.00
2023-06-16T10:21:43.586Z,486.00
2023-06-16T10:22:43.543Z,487.00
2023-06-16T10:23:43.569Z,487.00
2023-06-16T10:24:43.558Z,488.00
2023-06-16T10:25:43.492Z,488.00
2023-06-16T10:26:43.513Z,489.00
2023-06-16T10:27:43.541Z,489.00
2023-06-16T10:28:43.479Z,491.00
2023-06-16T10:29:43.516Z,493.00
2023-06-16T10:30:43.524Z,493.00
2023-06-16T10:31:43.558Z,492.00
2023-06-16T10:32:43.560Z,494.00
2023-06-16T10:33:43.549Z,493.00
2023-06-16T10:34:43.525Z,494.00
2023-06-16T10:35:43.854Z,493.00
2023-06-16T10:36:43.497Z,494.00
2023-06-16T10:37:43.472Z,493.00
2023-06-16T10:38:43.489Z,492.00
2023-06-16T10:39:43.467Z,488.00
2023-06-16T10:40:43.513Z,490.00
2023-06-16T10:41:43.456Z,490.00
2023-06-16T10:42:43.337Z,492.00
2023-06-16T10:43:43.331Z,491.00
2023-06-16T10:44:43.298Z,493.00
2023-06-16T10:45:43.284Z,492.00
2023-06-16T10:46:43.426Z,492.00
2023-06-16T10:47:43.353Z,495.00
2023-06-16T10:48:43.340Z,495.00
2023-06-16T10:49:43.362Z,495.00
2023-06-16T10:50:43.434Z,495.00
2023-06-16T10:51:43.403Z,499.00
2023-06-16T10:52:43.429Z,500.00
2023-06-16T10:53:43.487Z,501.00
2023-06-16T10:54:43.476Z,502.00
2023-06-16T10:55:43.579Z,500.00
2023-06-16T10:56:43.529Z,499.00
2023-06-16T10:57:43.573Z,498.00
2023-06-16T10:58:43.560Z,497.00
2023-06-16T10:59:43.548Z,496.00
2023-06-16T11:00:43.563Z,497.00
2023-06-16T11:01:43.621Z,499.00
2023-06-16T11:02:43.569Z,500.00
2023-06-16T11:03:43.535Z,499.00
2023-06-16T11:04:43.439Z,501.00
2023-06-16T11:05:43.408Z,500.00
2023-06-16T11:06:50.077Z,502.00
2023-06-16T11:07:44.363Z,503.00
2023-06-16T11:08:43.347Z,504.00
2023-06-16T11:09:43.321Z,505.00
2023-06-16T11:10:43.300Z,506.00
2023-06-16T11:11:43.274Z,505.00
2023-06-16T11:12:43.247Z,506.00
2023-06-16T11:13:43.210Z,508.00
2023-06-16T11:14:43.184Z,509.00
2023-06-16T11:15:43.202Z,512.00
2023-06-16T11:16:43.148Z,513.00
2023-06-16T11:17:43.118Z,514.00
2023-06-16T11:18:43.079Z,515.00
2023-06-16T11:19:43.044Z,514.00
2023-06-16T11:20:43.054Z,514.00
2023-06-16T11:21:43.078Z,514.00
2023-06-16T11:22:43.109Z,515.00
2023-06-16T11:23:43.133Z,516.00
2023-06-16T11:24:43.140Z,516.00
2023-06-16T11:25:43.114Z,514.00
2023-06-16T11:26:43.780Z,512.00
2023-06-16T11:27:43.087Z,511.00
2023-06-16T11:28:43.020Z,514.00
2023-06-16T11:29:42.988Z,514.00
2023-06-16T11:30:42.960Z,516.00
2023-06-16T11:31:43.004Z,518.00
2023-06-16T11:32:42.968Z,520.00
2023-06-16T11:33:42.909Z,520.00
2023-06-16T11:34:42.884Z,518.00
2023-06-16T11:35:42.853Z,516.00
2023-06-16T11:36:43.635Z,520.00
2023-06-16T11:37:42.838Z,521.00
2023-06-16T11:38:42.813Z,518.00
2023-06-16T11:39:42.798Z,522.00
2023-06-16T11:40:42.754Z,521.00
2023-06-16T11:41:53.880Z,517.00
2023-06-16T11:42:43.741Z,516.00
2023-06-16T11:43:42.684Z,516.00
2023-06-16T11:44:42.661Z,519.00
2023-06-16T11:45:42.628Z,522.00
2023-06-16T11:46:42.638Z,523.00
2023-06-16T11:47:42.604Z,523.00
2023-06-16T11:48:42.554Z,523.00
2023-06-16T11:49:42.518Z,522.00
2023-06-16T11:50:42.516Z,520.00
2023-06-16T11:51:42.480Z,518.00
2023-06-16T11:52:42.460Z,519.00
2023-06-16T11:53:42.427Z,519.00
2023-06-16T11:54:42.446Z,518.00
2023-06-16T11:55:42.408Z,521.00
2023-06-16T11:56:42.386Z,521.00
2023-06-16T11:57:42.434Z,523.00
2023-06-16T11:58:42.339Z,524.00
2023-06-16T11:59:42.306Z,525.00
2023-06-16T12:00:42.307Z,525.00
2023-06-16T12:01:42.262Z,523.00
2023-06-16T12:02:42.283Z,523.00
2023-06-16T12:03:55.846Z,523.00
2023-06-16T12:04:43.219Z,520.00
2023-06-16T12:05:42.164Z,523.00
2023-06-16T12:06:42.128Z,525.00
2023-06-16T12:07:42.125Z,523.00
2023-06-16T12:08:42.098Z,524.00
2023-06-16T12:09:42.082Z,524.00
2023-06-16T12:10:42.060Z,524.00
2023-06-16T12:11:42.031Z,525.00
2023-06-16T12:12:42.023Z,524.00
2023-06-16T12:13:42.021Z,522.00
2023-06-16T12:14:41.982Z,523.00
2023-06-16T12:15:41.968Z,524.00
2023-06-16T12:16:42.001Z,526.00
2023-06-16T12:17:41.915Z,526.00
2023-06-16T12:18:41.894Z,525.00
2023-06-16T12:19:43.652Z,527.00
2023-06-16T12:20:41.838Z,525.00
2023-06-16T12:21:41.852Z,523.00
2023-06-16T12:22:41.815Z,523.00
2023-06-16T12:23:41.789Z,522.00
2023-06-16T12:24:41.838Z,523.00
2023-06-16T12:25:41.749Z,523.00
2023-06-16T12:26:41.871Z,525.00
2023-06-16T12:27:41.711Z,526.00
2023-06-16T12:28:41.687Z,526.00
2023-06-16T12:29:41.709Z,526.00